createdAt,value
2019-03-12T00:00:34.648Z,3.66
2019-03-12T00:03:03.269Z,3.63
2019-03-12T00:05:31.767Z,3.71
2019-03-12T00:08:00.199Z,3.69
2019-03-12T00:10:28.857Z,3.74
2019-03-12T00:12:57.318Z,3.74
2019-03-12T00:15:26.040Z,3.68
2019-03-12T00:17:54.537Z,3.73
2019-03-12T00:20:23.102Z,3.69
2019-03-12T00:22:51.575Z,3.73
2019-03-12T00:25:20.057Z,3.74
2019-03-12T00:27:48.771Z,3.77
2019-03-12T00:30:17.302Z,3.72
2019-03-12T00:32:45.866Z,3.70
2019-03-12T00:35:14.533Z,3.67
2019-03-12T00:37:43.135Z,3.66
2019-03-12T00:40:11.734Z,3.68
2019-03-12T00:42:40.337Z,3.72
2019-03-12T00:45:11.009Z,3.72
2019-03-12T00:47:39.550Z,3.72
2019-03-12T00:50:09.837Z,3.70
2019-03-12T00:52:38.380Z,3.66
2019-03-12T00:55:08.371Z,3.69
2019-03-12T00:57:36.878Z,3.66
2019-03-12T01:00:16.708Z,3.67
2019-03-12T01:02:45.238Z,3.71
2019-03-12T01:05:14.117Z,3.73
2019-03-12T01:07:42.596Z,3.72
2019-03-12T01:10:17.283Z,3.76
2019-03-12T01:12:45.958Z,3.76
2019-03-12T01:15:15.227Z,3.75
2019-03-12T01:17:43.981Z,3.77
2019-03-12T01:20:14.444Z,3.79
2019-03-12T01:22:43.321Z,3.80
2019-03-12T01:25:13.579Z,3.80
2019-03-12T01:27:42.113Z,3.80
2019-03-12T01:30:16.939Z,3.85
2019-03-12T01:32:45.498Z,3.85
2019-03-12T01:35:14.304Z,3.84
2019-03-12T01:37:42.773Z,3.77
2019-03-12T01:40:13.001Z,3.83
2019-03-12T01:42:41.591Z,3.90
2019-03-12T01:45:12.976Z,3.73
2019-03-12T01:47:41.483Z,3.80
2019-03-12T01:50:14.795Z,3.82
2019-03-12T01:52:43.346Z,3.87
2019-03-12T01:55:14.572Z,3.89
2019-03-12T01:57:43.141Z,3.86
2019-03-12T02:00:16.547Z,3.83
2019-03-12T02:02:45.102Z,3.83
2019-03-12T02:05:13.923Z,3.84
2019-03-12T02:07:42.688Z,3.73
2019-03-12T02:10:12.823Z,3.68
2019-03-12T02:12:41.360Z,3.61
2019-03-12T02:15:12.668Z,3.62
2019-03-12T02:17:41.222Z,3.68
2019-03-12T02:20:18.066Z,3.64
2019-03-12T02:22:46.516Z,3.52
2019-03-12T02:25:18.739Z,3.50
2019-03-12T02:27:47.386Z,3.48
2019-03-12T02:30:20.837Z,3.48
2019-03-12T02:32:49.510Z,3.42
2019-03-12T02:35:18.168Z,3.37
2019-03-12T02:37:46.606Z,3.42
2019-03-12T02:40:16.399Z,3.46
2019-03-12T02:42:45.034Z,3.58
2019-03-12T02:45:17.252Z,3.54
2019-03-12T02:47:46.116Z,3.58
2019-03-12T02:50:15.447Z,3.58
2019-03-12T02:52:44.383Z,3.55
2019-03-12T02:55:13.674Z,3.39
2019-03-12T02:57:42.454Z,3.42
2019-03-12T03:00:23.275Z,3.48
2019-03-12T03:02:51.958Z,3.52
2019-03-12T03:05:20.536Z,3.58
2019-03-12T03:07:53.910Z,3.47
2019-03-12T03:10:22.641Z,3.38
2019-03-12T03:12:51.254Z,3.43
2019-03-12T03:15:29.630Z,3.33
2019-03-12T03:17:58.094Z,3.26
2019-03-12T03:20:26.621Z,3.25
2019-03-12T03:22:55.239Z,3.39
2019-03-12T03:25:23.754Z,3.37
2019-03-12T03:27:52.389Z,3.40
2019-03-12T03:30:25.098Z,3.46
2019-03-12T03:32:53.609Z,3.52
2019-03-12T03:35:22.229Z,3.50
2019-03-12T03:37:51.077Z,3.54
2019-03-12T03:40:22.604Z,3.51
2019-03-12T03:42:51.608Z,3.50
2019-03-12T03:45:20.485Z,3.41
2019-03-12T03:47:49.523Z,3.41
2019-03-12T03:50:18.736Z,3.50
2019-03-12T03:52:47.214Z,3.51
2019-03-12T03:55:17.954Z,3.60
2019-03-12T03:57:46.573Z,3.65
2019-03-12T04:00:18.582Z,3.69
2019-03-12T04:02:47.218Z,3.72
2019-03-12T04:05:15.716Z,3.56
2019-03-12T04:07:44.330Z,3.53
2019-03-12T04:10:13.351Z,3.50
2019-03-12T04:12:41.992Z,3.37
2019-03-12T04:15:12.710Z,3.45
2019-03-12T04:17:41.214Z,3.40
2019-03-12T04:20:12.286Z,3.37
2019-03-12T04:22:41.094Z,3.41
2019-03-12T04:25:10.529Z,3.43
2019-03-12T04:27:39.132Z,3.56
2019-03-12T04:30:16.887Z,3.50
2019-03-12T04:32:45.367Z,3.52
2019-03-12T04:35:22.092Z,3.58
2019-03-12T04:37:50.632Z,3.54
2019-03-12T04:40:19.114Z,3.55
2019-03-12T04:42:47.655Z,3.53
2019-03-12T04:45:17.663Z,3.60
2019-03-12T04:47:46.535Z,3.58
2019-03-12T04:50:15.569Z,3.63
2019-03-12T04:52:44.018Z,3.59
2019-03-12T04:55:14.384Z,3.54
2019-03-12T04:57:42.937Z,3.38
2019-03-12T05:00:23.254Z,3.46
2019-03-12T05:02:51.773Z,3.50
2019-03-12T05:05:20.261Z,3.51
2019-03-12T05:07:48.982Z,3.40
2019-03-12T05:10:17.503Z,3.34
2019-03-12T05:12:45.898Z,3.34
2019-03-12T05:15:18.842Z,3.33
2019-03-12T05:17:47.326Z,3.41
2019-03-12T05:20:16.238Z,3.49
2019-03-12T05:22:44.945Z,3.54
2019-03-12T05:25:14.510Z,3.52
2019-03-12T05:27:43.070Z,3.41
2019-03-12T05:30:19.510Z,3.50
2019-03-12T05:32:48.096Z,3.39
2019-03-12T05:35:16.937Z,3.43
2019-03-12T05:37:45.587Z,3.37
2019-03-12T05:40:15.438Z,3.39
2019-03-12T05:42:44.016Z,3.35
2019-03-12T05:45:16.653Z,3.39
2019-03-12T05:47:45.107Z,3.28
2019-03-12T05:50:15.756Z,3.30
2019-03-12T05:52:44.355Z,3.32
2019-03-12T05:55:14.517Z,3.23
2019-03-12T05:57:43.023Z,3.29
2019-03-12T06:00:25.611Z,3.29
2019-03-12T06:02:54.151Z,3.29
2019-03-12T06:05:22.592Z,3.32
2019-03-12T06:07:51.825Z,3.33
2019-03-12T06:10:20.638Z,3.27
2019-03-12T06:12:49.699Z,3.36
2019-03-12T06:15:18.496Z,3.47
2019-03-12T06:17:47.186Z,3.38
2019-03-12T06:20:16.189Z,3.48
2019-03-12T06:22:44.759Z,3.53
2019-03-12T06:25:14.252Z,3.64
2019-03-12T06:27:42.778Z,3.57
2019-03-12T06:30:16.290Z,3.63
2019-03-12T06:32:55.207Z,3.58
2019-03-12T06:35:31.093Z,3.61
2019-03-12T06:38:01.204Z,3.73
2019-03-12T06:40:33.984Z,3.77
2019-03-12T06:43:13.165Z,3.79
2019-03-12T06:45:59.420Z,3.85
2019-03-12T06:48:29.547Z,3.85
2019-03-12T06:51:14.505Z,3.87
2019-03-12T06:53:47.608Z,3.81
2019-03-12T06:56:35.898Z,3.70
2019-03-12T06:59:23.738Z,3.62
2019-03-12T07:01:54.177Z,3.66
2019-03-12T07:04:27.298Z,3.69
2019-03-12T07:07:00.715Z,3.67
2019-03-12T07:09:45.558Z,3.73
2019-03-12T07:12:24.397Z,3.72
2019-03-12T07:15:09.731Z,3.82
2019-03-12T07:17:45.931Z,3.90
2019-03-12T07:20:32.227Z,3.83
2019-03-12T07:23:08.124Z,3.91
2019-03-12T07:25:41.280Z,3.90
2019-03-12T07:28:17.489Z,3.98
2019-03-12T07:31:02.773Z,4.00
2019-03-12T07:33:41.605Z,4.03
2019-03-12T07:36:11.700Z,4.16
2019-03-12T07:38:41.742Z,4.19
2019-03-12T07:41:30.350Z,4.21
2019-03-12T07:43:52.793Z,4.36
2019-03-12T07:46:38.274Z,4.37
2019-03-12T07:49:14.267Z,4.45
2019-03-12T07:51:48.766Z,4.54
2019-03-12T07:54:22.366Z,4.63
2019-03-12T07:57:01.425Z,4.81
2019-03-12T07:59:31.675Z,4.64
2019-03-12T08:02:17.780Z,4.49
2019-03-12T08:04:59.692Z,4.47
2019-03-12T08:07:39.093Z,4.38
2019-03-12T08:10:14.268Z,4.29
2019-03-12T08:12:47.506Z,4.37
2019-03-12T08:15:23.124Z,4.41
2019-03-12T08:18:04.420Z,4.54
2019-03-12T08:20:46.485Z,4.58
2019-03-12T08:23:22.602Z,4.52
2019-03-12T08:25:52.679Z,4.60
2019-03-12T08:28:25.446Z,4.62
2019-03-12T08:30:58.019Z,4.57
2019-03-12T08:33:50.526Z,4.59
2019-03-12T08:36:18.425Z,4.64
2019-03-12T08:38:57.638Z,4.75
2019-03-12T08:41:45.713Z,4.84
2019-03-12T08:44:31.376Z,4.76
2019-03-12T08:47:17.683Z,4.89
2019-03-12T08:49:56.669Z,4.96
2019-03-12T08:52:29.197Z,4.97
2019-03-12T08:54:59.314Z,4.89
2019-03-12T08:57:44.601Z,4.99
2019-03-12T09:00:24.234Z,4.90
2019-03-12T09:03:00.173Z,5.00
2019-03-12T09:05:33.269Z,4.92
2019-03-12T09:08:06.436Z,5.05
2019-03-12T09:10:36.765Z,5.33
2019-03-12T09:13:09.902Z,5.50
2019-03-12T09:15:52.320Z,5.65
2019-03-12T09:18:38.411Z,5.54
2019-03-12T09:21:08.844Z,5.77
2019-03-12T09:23:44.854Z,5.85
2019-03-12T09:26:30.957Z,5.83
2019-03-12T09:29:04.092Z,5.74
2019-03-12T09:31:36.609Z,6.33
2019-03-12T09:34:22.974Z,7.06
2019-03-12T09:37:08.083Z,7.28
2019-03-12T09:39:47.428Z,6.99
2019-03-12T09:42:17.593Z,7.21
2019-03-12T09:44:47.771Z,7.45
2019-03-12T09:47:17.939Z,7.34
2019-03-12T09:49:48.094Z,7.30
2019-03-12T09:52:27.330Z,7.21
2019-03-12T09:54:57.797Z,7.31
2019-03-12T09:57:34.305Z,7.28
2019-03-12T10:00:16.171Z,7.21
2019-03-12T10:02:39.235Z,7.40
2019-03-12T10:05:09.714Z,7.75
2019-03-12T10:07:58.504Z,7.93
2019-03-12T10:10:28.626Z,8.39
2019-03-12T10:13:16.529Z,8.38
2019-03-12T10:16:02.557Z,8.25
2019-03-12T10:18:48.541Z,7.99
2019-03-12T10:21:34.948Z,7.80
2019-03-12T10:24:21.124Z,7.64
2019-03-12T10:26:57.027Z,7.53
2019-03-12T10:29:27.116Z,7.46
2019-03-12T10:31:57.238Z,7.58
2019-03-12T10:34:43.812Z,7.66
2019-03-12T10:37:30.090Z,7.79
2019-03-12T10:40:17.846Z,7.56
2019-03-12T10:42:50.817Z,7.34
2019-03-12T10:45:20.905Z,7.19
2019-03-12T10:47:51.106Z,7.63
2019-03-12T10:50:19.967Z,7.71
2019-03-12T10:52:48.441Z,8.07
2019-03-12T10:55:16.896Z,7.95
2019-03-12T10:57:45.504Z,9.00
2019-03-12T11:00:18.723Z,9.14
2019-03-12T11:02:47.300Z,8.72
2019-03-12T11:05:16.038Z,9.29
2019-03-12T11:07:44.541Z,9.91
2019-03-12T11:10:15.750Z,9.50
2019-03-12T11:12:44.680Z,8.64
2019-03-12T11:15:15.184Z,8.75
2019-03-12T11:17:49.637Z,9.33
2019-03-12T11:20:19.563Z,10.08
2019-03-12T11:22:48.167Z,10.07
2019-03-12T11:25:26.413Z,9.51
2019-03-12T11:27:46.969Z,9.28
2019-03-12T11:30:17.857Z,8.89
2019-03-12T11:32:46.422Z,8.83
2019-03-12T11:35:14.916Z,9.66
2019-03-12T11:37:43.408Z,10.61
2019-03-12T11:40:14.863Z,10.46
2019-03-12T11:42:43.371Z,10.27
2019-03-12T11:45:16.975Z,9.54
2019-03-12T11:47:43.330Z,9.26
2019-03-12T11:50:17.079Z,9.09
2019-03-12T11:52:54.629Z,8.94
2019-03-12T11:55:16.374Z,9.47
2019-03-12T11:57:45.304Z,9.89
2019-03-12T12:00:29.254Z,10.25
2019-03-12T12:03:00.256Z,11.25
2019-03-12T12:05:28.608Z,11.24
2019-03-12T12:07:57.178Z,10.63
2019-03-12T12:10:26.015Z,11.08
2019-03-12T12:12:54.896Z,11.27
2019-03-12T12:15:23.732Z,12.23
2019-03-12T12:17:52.423Z,13.78
2019-03-12T12:20:29.450Z,12.88
2019-03-12T12:22:51.221Z,11.68
2019-03-12T12:25:20.359Z,10.10
2019-03-12T12:27:49.252Z,10.05
2019-03-12T12:30:23.529Z,10.03
2019-03-12T12:32:52.087Z,10.47
2019-03-12T12:35:20.907Z,9.97
2019-03-12T12:37:49.468Z,11.53
2019-03-12T12:40:19.103Z,13.23
2019-03-12T12:42:47.792Z,13.60
2019-03-12T12:45:25.138Z,13.71
2019-03-12T12:47:53.780Z,14.00
2019-03-12T12:50:22.496Z,14.90
2019-03-12T12:52:51.435Z,14.23
2019-03-12T12:55:19.971Z,13.01
2019-03-12T12:57:48.428Z,12.02
2019-03-12T13:00:19.164Z,11.50
2019-03-12T13:02:48.102Z,10.86
2019-03-12T13:05:16.878Z,10.73
2019-03-12T13:07:45.637Z,11.16
2019-03-12T13:10:20.222Z,11.00
2019-03-12T13:12:48.636Z,10.60
2019-03-12T13:15:17.481Z,10.71
2019-03-12T13:17:46.014Z,10.11
2019-03-12T13:20:15.175Z,10.10
2019-03-12T13:22:43.880Z,10.54
2019-03-12T13:25:16.852Z,10.66
2019-03-12T13:27:45.291Z,10.94
2019-03-12T13:30:23.992Z,10.78
2019-03-12T13:32:52.562Z,10.35
2019-03-12T13:35:21.809Z,9.76
2019-03-12T13:37:50.371Z,9.52
2019-03-12T13:40:23.026Z,9.54
2019-03-12T13:42:52.000Z,9.63
2019-03-12T13:45:23.600Z,9.68
2019-03-12T13:47:52.243Z,9.68
2019-03-12T13:50:21.235Z,9.76
2019-03-12T13:52:50.138Z,9.89
2019-03-12T13:55:18.709Z,10.11
2019-03-12T13:57:47.225Z,10.21
2019-03-12T14:00:25.835Z,10.02
2019-03-12T14:02:54.822Z,9.74
2019-03-12T14:05:23.429Z,9.43
2019-03-12T14:07:52.328Z,9.40
2019-03-12T14:10:26.331Z,9.29
2019-03-12T14:12:58.246Z,9.24
2019-03-12T14:15:31.076Z,9.37
2019-03-12T14:17:59.853Z,9.54
2019-03-12T14:20:48.292Z,9.71
2019-03-12T14:23:26.180Z,9.88
2019-03-12T14:25:54.770Z,9.79
2019-03-12T14:28:23.318Z,9.61
2019-03-12T14:30:52.034Z,9.48
2019-03-12T14:33:20.592Z,9.56
2019-03-12T14:35:51.721Z,9.23
2019-03-12T14:38:20.053Z,9.21
2019-03-12T14:40:48.686Z,9.38
2019-03-12T14:43:17.295Z,9.22
2019-03-12T14:45:52.462Z,9.18
2019-03-12T14:48:41.882Z,9.01
2019-03-12T14:51:31.127Z,8.95
2019-03-12T14:54:07.780Z,8.95
2019-03-12T14:56:36.341Z,9.06
2019-03-12T14:59:05.130Z,8.94
2019-03-12T15:01:33.600Z,9.10
2019-03-12T15:04:02.160Z,9.13
2019-03-12T15:06:30.709Z,9.16
2019-03-12T15:08:59.242Z,9.01
2019-03-12T15:11:27.947Z,9.05
2019-03-12T15:13:56.660Z,9.16
2019-03-12T15:16:25.283Z,9.30
2019-03-12T15:18:53.821Z,9.77
2019-03-12T15:21:22.314Z,9.77
2019-03-12T15:23:50.877Z,9.64
2019-03-12T15:26:19.392Z,9.37
2019-03-12T15:28:48.510Z,9.30
2019-03-12T15:31:17.340Z,9.10
2019-03-12T15:33:45.978Z,9.08
2019-03-12T15:36:14.788Z,9.04
2019-03-12T15:38:43.473Z,9.09
2019-03-12T15:41:12.038Z,9.12
2019-03-12T15:43:40.554Z,9.00
2019-03-12T15:46:09.034Z,8.87
2019-03-12T15:48:37.705Z,8.76
2019-03-12T15:51:06.337Z,8.74
2019-03-12T15:53:34.920Z,8.63
2019-03-12T15:56:03.465Z,8.62
2019-03-12T15:58:31.916Z,8.72
2019-03-12T16:01:02.708Z,8.64
2019-03-12T16:03:30.648Z,8.60
2019-03-12T16:05:59.260Z,8.57
2019-03-12T16:08:27.666Z,8.56
2019-03-12T16:10:58.316Z,8.64
2019-03-12T16:13:26.381Z,8.65
2019-03-12T16:15:54.909Z,8.62
2019-03-12T16:18:23.446Z,8.62
2019-03-12T16:20:52.096Z,8.55
2019-03-12T16:23:20.968Z,8.52
2019-03-12T16:25:49.817Z,8.52
2019-03-12T16:28:18.523Z,8.47
2019-03-12T16:30:47.150Z,8.45
2019-03-12T16:33:15.653Z,8.48
2019-03-12T16:35:44.199Z,8.35
2019-03-12T16:38:12.796Z,8.35
2019-03-12T16:40:41.509Z,8.36
2019-03-12T16:43:09.988Z,8.30
2019-03-12T16:45:38.479Z,8.34
2019-03-12T16:48:07.206Z,8.26
2019-03-12T16:50:35.704Z,8.23
2019-03-12T16:53:04.173Z,8.22
2019-03-12T16:55:32.802Z,8.19
2019-03-12T16:58:01.441Z,8.16
2019-03-12T17:00:30.048Z,8.20
2019-03-12T17:02:58.589Z,8.15
2019-03-12T17:05:27.172Z,8.10
2019-03-12T17:07:55.623Z,8.10
2019-03-12T17:10:24.162Z,8.15
2019-03-12T17:12:52.793Z,8.14
2019-03-12T17:15:23.267Z,8.07
2019-03-12T17:17:51.788Z,8.01
2019-03-12T17:20:21.685Z,8.09
2019-03-12T17:22:50.292Z,8.00
2019-03-12T17:25:18.808Z,7.98
2019-03-12T17:27:47.278Z,8.04
2019-03-12T17:30:20.804Z,8.02
2019-03-12T17:32:49.308Z,8.04
2019-03-12T17:35:27.052Z,7.93
2019-03-12T17:37:55.502Z,8.00
2019-03-12T17:40:24.091Z,7.91
2019-03-12T17:42:52.616Z,7.88
2019-03-12T17:45:21.098Z,7.92
2019-03-12T17:47:49.963Z,7.93
2019-03-12T17:50:18.516Z,7.92
2019-03-12T17:52:47.027Z,7.88
2019-03-12T17:55:15.797Z,7.93
2019-03-12T17:57:45.808Z,7.88
2019-03-12T18:00:28.327Z,7.87
2019-03-12T18:02:56.243Z,7.89
2019-03-12T18:05:25.129Z,7.80
2019-03-12T18:07:53.750Z,7.77
2019-03-12T18:10:22.331Z,7.82
2019-03-12T18:12:50.945Z,7.78
2019-03-12T18:15:20.340Z,7.75
2019-03-12T18:17:48.906Z,7.66
2019-03-12T18:20:23.807Z,7.65
2019-03-12T18:22:52.325Z,7.70
2019-03-12T18:25:35.359Z,7.65
2019-03-12T18:28:04.028Z,7.61
2019-03-12T18:30:34.597Z,7.60
2019-03-12T18:33:03.118Z,7.59
2019-03-12T18:35:31.752Z,7.55
2019-03-12T18:38:00.289Z,7.54
2019-03-12T18:40:29.741Z,7.53
2019-03-12T18:42:58.521Z,7.49
2019-03-12T18:45:33.725Z,7.53
2019-03-12T18:48:02.531Z,7.52
2019-03-12T18:50:31.027Z,7.52
2019-03-12T18:52:59.555Z,7.51
2019-03-12T18:55:33.907Z,7.51
2019-03-12T18:58:03.053Z,7.53
2019-03-12T19:00:32.354Z,7.53
2019-03-12T19:03:00.937Z,7.54
2019-03-12T19:05:32.187Z,7.50
2019-03-12T19:08:00.856Z,7.52
2019-03-12T19:10:29.369Z,7.51
2019-03-12T19:12:57.993Z,7.53
2019-03-12T19:15:26.440Z,7.54
2019-03-12T19:17:54.954Z,7.56
2019-03-12T19:20:23.749Z,7.54
2019-03-12T19:22:52.444Z,7.50
2019-03-12T19:25:38.576Z,7.50
2019-03-12T19:28:07.859Z,7.53
2019-03-12T19:30:36.557Z,7.47
2019-03-12T19:33:08.586Z,7.41
2019-03-12T19:35:37.548Z,7.46
2019-03-12T19:38:11.677Z,7.47
2019-03-12T19:40:48.779Z,7.49
2019-03-12T19:43:21.842Z,7.50
2019-03-12T19:45:51.106Z,7.42
2019-03-12T19:48:20.070Z,7.51
2019-03-12T19:50:49.143Z,7.43
2019-03-12T19:53:17.748Z,7.44
2019-03-12T19:55:52.225Z,7.46
2019-03-12T19:58:21.557Z,7.41
2019-03-12T20:00:50.408Z,7.33
2019-03-12T20:03:21.682Z,7.34
2019-03-12T20:05:50.169Z,7.29
2019-03-12T20:08:18.826Z,7.25
2019-03-12T20:11:02.175Z,7.26
2019-03-12T20:13:36.445Z,7.26
2019-03-12T20:16:11.759Z,7.17
2019-03-12T20:19:04.549Z,7.16
2019-03-12T20:21:59.974Z,7.18
2019-03-12T20:24:56.891Z,7.16
2019-03-12T20:27:58.272Z,7.20
2019-03-12T20:30:39.047Z,7.17
2019-03-12T20:33:28.495Z,7.16
2019-03-12T20:36:17.807Z,7.16
2019-03-12T20:39:22.355Z,7.09
2019-03-12T20:42:10.566Z,7.11
2019-03-12T20:44:56.848Z,7.11
2019-03-12T20:47:46.491Z,7.11
2019-03-12T20:50:46.698Z,7.04
2019-03-12T20:53:40.749Z,7.00
2019-03-12T20:56:28.993Z,6.98
2019-03-12T20:59:18.452Z,6.97
2019-03-12T21:02:22.799Z,7.00
2019-03-12T21:05:16.575Z,6.98
2019-03-12T21:08:08.901Z,7.00
2019-03-12T21:10:56.793Z,6.96
2019-03-12T21:14:00.979Z,6.89
2019-03-12T21:16:53.308Z,6.94
2019-03-12T21:19:56.291Z,6.99
2019-03-12T21:22:44.278Z,6.94
2019-03-12T21:25:36.505Z,6.95
2019-03-12T21:28:38.035Z,6.89
2019-03-12T21:31:06.729Z,6.89
2019-03-12T21:33:35.130Z,6.94
2019-03-12T21:36:03.794Z,6.96
2019-03-12T21:38:32.482Z,6.98
2019-03-12T21:41:01.029Z,7.05
2019-03-12T21:43:29.670Z,6.96
2019-03-12T21:45:58.591Z,6.97
2019-03-12T21:48:27.457Z,6.97
2019-03-12T21:50:56.249Z,6.97
2019-03-12T21:53:24.841Z,6.94
2019-03-12T21:55:53.482Z,6.96
2019-03-12T21:58:21.902Z,6.90
2019-03-12T22:00:50.697Z,6.96
2019-03-12T22:03:19.469Z,6.95
2019-03-12T22:05:48.320Z,6.90
2019-03-12T22:08:17.048Z,6.91
2019-03-12T22:10:45.559Z,6.98
2019-03-12T22:13:14.230Z,6.94
2019-03-12T22:15:42.843Z,6.95
2019-03-12T22:18:11.372Z,6.89
2019-03-12T22:20:39.934Z,6.98
2019-03-12T22:23:10.037Z,6.98
2019-03-12T22:25:38.465Z,6.99
2019-03-12T22:28:07.022Z,7.03
2019-03-12T22:30:35.546Z,6.97
2019-03-12T22:33:04.048Z,6.99
2019-03-12T22:35:32.664Z,7.01
2019-03-12T22:38:01.206Z,7.07
2019-03-12T22:40:29.720Z,7.11
2019-03-12T22:42:58.096Z,7.09
2019-03-12T22:45:26.563Z,7.10
2019-03-12T22:47:55.086Z,7.06
2019-03-12T22:50:23.613Z,7.06
2019-03-12T22:52:52.097Z,7.06
2019-03-12T22:55:20.643Z,7.08
2019-03-12T22:57:49.319Z,7.12
2019-03-12T23:00:18.275Z,7.14
2019-03-12T23:02:46.891Z,7.12
2019-03-12T23:05:15.655Z,7.13
2019-03-12T23:07:44.212Z,7.18
2019-03-12T23:10:13.686Z,7.17
2019-03-12T23:12:42.134Z,7.15
2019-03-12T23:15:18.315Z,7.28
2019-03-12T23:17:46.776Z,7.34
2019-03-12T23:20:20.013Z,7.46
2019-03-12T23:22:51.961Z,7.50
2019-03-12T23:25:19.115Z,7.54
2019-03-12T23:27:47.614Z,7.56
2019-03-12T23:30:17.545Z,7.58
2019-03-12T23:32:46.153Z,7.57
2019-03-12T23:35:15.060Z,7.62
2019-03-12T23:37:43.608Z,7.59
2019-03-12T23:40:13.572Z,7.58
2019-03-12T23:42:42.157Z,7.58
2019-03-12T23:45:15.505Z,7.59
2019-03-12T23:47:44.083Z,7.63
2019-03-12T23:50:14.332Z,7.68
2019-03-12T23:52:43.195Z,7.62
2019-03-12T23:55:13.002Z,7.63
2019-03-12T23:57:41.474Z,7.67
